createdAt,value
2019-04-26T00:00:07.529Z,5.33
2019-04-26T00:02:41.611Z,5.23
2019-04-26T00:05:10.165Z,3.77
2019-04-26T00:07:37.215Z,4.07
2019-04-26T00:10:10.368Z,4.73
2019-04-26T00:12:47.997Z,6.27
2019-04-26T00:15:33.800Z,5.17
2019-04-26T00:18:02.672Z,2.93
2019-04-26T00:20:32.983Z,2.23
2019-04-26T00:23:01.349Z,5.30
2019-04-26T00:25:28.124Z,4.50
2019-04-26T00:27:54.920Z,2.00
2019-04-26T00:30:24.447Z,4.30
2019-04-26T00:32:53.915Z,6.00
2019-04-26T00:35:23.007Z,2.43
2019-04-26T00:37:51.834Z,5.20
2019-04-26T00:40:18.640Z,3.13
2019-04-26T00:42:45.450Z,3.97
2019-04-26T00:45:13.994Z,2.83
2019-04-26T00:47:43.863Z,3.87
2019-04-26T00:50:13.905Z,4.43
2019-04-26T00:52:42.582Z,3.47
2019-04-26T00:55:11.832Z,3.63
2019-04-26T00:57:38.535Z,3.57
2019-04-26T01:00:05.614Z,1.87
2019-04-26T01:02:38.465Z,1.67
2019-04-26T01:05:05.090Z,2.73
2019-04-26T01:07:34.509Z,2.53
2019-04-26T01:10:04.414Z,5.07
2019-04-26T01:12:33.922Z,4.00
2019-04-26T01:15:02.637Z,6.33
2019-04-26T01:17:32.531Z,3.37
2019-04-26T01:20:01.994Z,3.47
2019-04-26T01:22:33.263Z,6.27
2019-04-26T01:25:03.827Z,2.07
2019-04-26T01:27:32.266Z,1.97
2019-04-26T01:30:05.670Z,1.00
2019-04-26T01:32:32.985Z,1.50
2019-04-26T01:35:02.212Z,1.87
2019-04-26T01:37:32.281Z,2.93
2019-04-26T01:40:05.710Z,5.13
2019-04-26T01:43:01.352Z,1.20
2019-04-26T01:45:36.883Z,1.97
2019-04-26T01:48:29.016Z,2.60
2019-04-26T01:50:55.822Z,2.80
2019-04-26T01:53:22.685Z,2.87
2019-04-26T01:55:52.068Z,2.10
2019-04-26T01:58:25.243Z,1.73
2019-04-26T02:01:11.013Z,2.67
2019-04-26T02:03:37.935Z,1.93
2019-04-26T02:06:04.568Z,2.60
2019-04-26T02:08:34.052Z,3.53
2019-04-26T02:11:03.883Z,3.63
2019-04-26T02:13:33.363Z,1.97
2019-04-26T02:15:59.954Z,1.50
2019-04-26T02:18:33.597Z,4.97
2019-04-26T02:21:27.943Z,0.80
2019-04-26T02:24:01.972Z,3.57
2019-04-26T02:26:42.058Z,2.50
2019-04-26T02:29:14.920Z,1.03
2019-04-26T02:31:44.132Z,7.47
2019-04-26T02:34:14.786Z,3.07
2019-04-26T02:36:57.058Z,1.13
2019-04-26T02:39:17.242Z,5.13
2019-04-26T02:41:47.219Z,4.13
2019-04-26T02:44:16.273Z,0.90
2019-04-26T02:46:54.434Z,2.00
2019-04-26T02:49:38.521Z,1.43
2019-04-26T02:52:44.023Z,1.83
2019-04-26T02:55:38.823Z,2.77
2019-04-26T02:58:02.978Z,2.97
2019-04-26T03:00:33.481Z,1.80
2019-04-26T03:03:04.510Z,2.07
2019-04-26T03:05:39.714Z,1.17
2019-04-26T03:08:14.260Z,2.90
2019-04-26T03:10:48.390Z,4.40
2019-04-26T03:13:38.235Z,3.30
2019-04-26T03:16:32.675Z,3.07
2019-04-26T03:19:11.378Z,1.97
2019-04-26T03:22:03.504Z,2.30
2019-04-26T03:24:53.282Z,5.77
2019-04-26T03:27:40.987Z,4.27
2019-04-26T03:30:22.103Z,3.87
2019-04-26T03:33:17.000Z,2.20
2019-04-26T03:36:22.912Z,1.83
2019-04-26T03:39:11.533Z,3.43
2019-04-26T03:42:06.596Z,5.10
2019-04-26T03:44:40.070Z,4.03
2019-04-26T03:47:11.829Z,5.87
2019-04-26T03:50:07.907Z,4.20
2019-04-26T03:53:23.431Z,7.23
2019-04-26T03:56:14.285Z,4.33
2019-04-26T03:59:04.882Z,6.53
2019-04-26T04:01:46.228Z,2.70
2019-04-26T04:04:39.623Z,2.10
2019-04-26T04:07:10.430Z,4.30
2019-04-26T04:09:41.451Z,3.30
2019-04-26T04:12:17.471Z,3.17
2019-04-26T04:14:54.019Z,2.03
2019-04-26T04:17:39.028Z,5.17
2019-04-26T04:20:32.644Z,1.87
2019-04-26T04:23:16.502Z,2.67
2019-04-26T04:25:47.787Z,2.50
2019-04-26T04:28:51.729Z,4.53
2019-04-26T04:31:27.833Z,4.60
2019-04-26T04:34:13.129Z,2.83
2019-04-26T04:36:50.583Z,4.53
2019-04-26T04:39:32.066Z,3.87
2019-04-26T04:42:30.942Z,3.07
2019-04-26T04:45:30.872Z,3.23
2019-04-26T04:48:22.069Z,4.70
2019-04-26T04:51:00.144Z,5.23
2019-04-26T04:53:46.527Z,4.40
2019-04-26T04:56:58.960Z,3.73
2019-04-26T04:59:31.743Z,3.97
2019-04-26T05:02:33.069Z,3.47
2019-04-26T05:05:19.162Z,3.73
2019-04-26T05:08:06.551Z,3.63
2019-04-26T05:10:44.333Z,3.57
2019-04-26T05:13:27.065Z,3.73
2019-04-26T05:16:28.929Z,9.33
2019-04-26T05:19:52.737Z,4.43
2019-04-26T05:23:06.688Z,3.60
2019-04-26T05:26:30.670Z,5.13
2019-04-26T05:29:36.044Z,4.10
2019-04-26T05:32:35.775Z,5.70
2019-04-26T05:35:39.033Z,3.40
2019-04-26T05:38:21.317Z,4.03
2019-04-26T05:41:21.348Z,6.37
2019-04-26T05:44:17.195Z,4.83
2019-04-26T05:47:22.443Z,5.13
2019-04-26T05:51:11.241Z,6.17
2019-04-26T05:54:31.630Z,2.87
2019-04-26T05:57:20.218Z,3.13
2019-04-26T06:00:21.260Z,8.97
2019-04-26T06:03:44.717Z,4.07
2019-04-26T06:07:02.295Z,4.43
2019-04-26T06:10:13.893Z,3.70
2019-04-26T06:13:02.989Z,5.13
2019-04-26T06:15:56.155Z,4.87
2019-04-26T06:18:49.045Z,3.47
2019-04-26T06:21:42.565Z,6.10
2019-04-26T06:24:52.632Z,3.43
2019-04-26T06:27:45.934Z,4.77
2019-04-26T06:30:18.181Z,3.80
2019-04-26T06:33:34.608Z,4.27
2019-04-26T06:36:06.640Z,2.90
2019-04-26T06:39:25.408Z,2.60
2019-04-26T06:42:47.343Z,3.30
2019-04-26T06:46:08.179Z,3.20
2019-04-26T06:48:51.136Z,3.43
2019-04-26T06:51:24.613Z,6.10
2019-04-26T06:54:15.549Z,3.10
2019-04-26T06:57:37.165Z,2.27
2019-04-26T07:00:20.562Z,3.17
2019-04-26T07:03:12.096Z,3.53
2019-04-26T07:05:42.443Z,3.60
2019-04-26T07:08:56.601Z,3.30
2019-04-26T07:12:28.735Z,4.07
2019-04-26T07:15:52.052Z,6.57
2019-04-26T07:18:26.950Z,2.43
2019-04-26T07:21:11.533Z,2.60
2019-04-26T07:24:14.933Z,3.57
2019-04-26T07:27:19.616Z,2.93
2019-04-26T07:30:21.804Z,2.80
2019-04-26T07:33:18.446Z,2.63
2019-04-26T07:35:59.046Z,5.33
2019-04-26T07:39:13.795Z,3.40
2019-04-26T07:42:11.563Z,4.13
2019-04-26T07:45:31.802Z,3.17
2019-04-26T07:48:32.345Z,3.17
2019-04-26T07:51:48.473Z,2.90
2019-04-26T07:55:06.783Z,3.77
2019-04-26T07:58:06.929Z,3.77
2019-04-26T08:00:45.176Z,5.43
2019-04-26T08:03:18.938Z,3.37
2019-04-26T08:06:08.538Z,4.37
2019-04-26T08:08:43.695Z,4.13
2019-04-26T08:11:17.929Z,4.27
2019-04-26T08:14:06.263Z,5.33
2019-04-26T08:16:43.352Z,2.87
2019-04-26T08:19:19.915Z,6.37
2019-04-26T08:21:49.086Z,4.03
2019-04-26T08:24:21.460Z,4.33
2019-04-26T08:27:08.853Z,3.90
2019-04-26T08:29:44.171Z,4.47
2019-04-26T08:32:21.266Z,3.00
2019-04-26T08:35:02.296Z,4.00
2019-04-26T08:37:41.240Z,4.30
2019-04-26T08:40:08.772Z,3.97
2019-04-26T08:42:43.947Z,4.90
2019-04-26T08:46:17.135Z,4.07
2019-04-26T08:48:17.229Z,3.07
2019-04-26T08:50:47.056Z,3.10
2019-04-26T08:53:14.898Z,11.17
2019-04-26T08:55:46.454Z,3.00
2019-04-26T08:58:19.918Z,2.80
2019-04-26T09:01:16.061Z,6.03
2019-04-26T09:03:58.149Z,3.00
2019-04-26T09:06:46.581Z,2.50
2019-04-26T09:09:19.768Z,3.10
2019-04-26T09:11:59.514Z,3.13
2019-04-26T09:14:21.046Z,3.30
2019-04-26T09:16:50.433Z,4.93
2019-04-26T09:19:16.903Z,5.17
2019-04-26T09:21:53.818Z,4.03
2019-04-26T09:24:45.445Z,4.33
2019-04-26T09:27:21.105Z,4.73
2019-04-26T09:30:07.688Z,5.13
2019-04-26T09:33:07.722Z,4.93
2019-04-26T09:35:34.441Z,4.40
2019-04-26T09:38:01.158Z,5.47
2019-04-26T09:40:28.022Z,5.70
2019-04-26T09:43:06.069Z,5.97
2019-04-26T09:45:51.182Z,5.40
2019-04-26T09:48:24.929Z,6.93
2019-04-26T09:50:54.451Z,3.77
2019-04-26T09:53:25.147Z,5.07
2019-04-26T09:55:53.626Z,6.13
2019-04-26T09:58:20.388Z,4.17
2019-04-26T10:00:50.056Z,5.17
2019-04-26T10:03:16.890Z,5.90
2019-04-26T10:05:44.127Z,3.50
2019-04-26T10:08:17.513Z,3.83
2019-04-26T10:10:45.553Z,3.47
2019-04-26T10:13:46.006Z,5.13
2019-04-26T10:16:29.781Z,4.10
2019-04-26T10:19:03.276Z,2.97
2019-04-26T10:21:34.058Z,5.17
2019-04-26T10:24:00.871Z,4.63
2019-04-26T10:26:29.799Z,3.93
2019-04-26T10:29:01.150Z,3.47
2019-04-26T10:31:51.678Z,4.77
2019-04-26T10:34:16.305Z,4.20
2019-04-26T10:36:56.850Z,4.97
2019-04-26T10:39:24.239Z,6.40
2019-04-26T10:41:56.025Z,4.37
2019-04-26T10:44:24.859Z,4.87
2019-04-26T10:46:55.753Z,4.03
2019-04-26T10:49:45.083Z,6.30
2019-04-26T10:52:27.030Z,5.60
2019-04-26T10:55:24.079Z,11.20
2019-04-26T10:57:55.630Z,5.80
2019-04-26T11:00:43.921Z,5.07
2019-04-26T11:03:11.515Z,4.20
2019-04-26T11:05:41.459Z,5.13
2019-04-26T11:08:12.622Z,4.03
2019-04-26T11:10:48.754Z,4.27
2019-04-26T11:13:21.346Z,4.90
2019-04-26T11:15:49.629Z,5.43
2019-04-26T11:18:19.848Z,4.17
2019-04-26T11:20:49.921Z,6.20
2019-04-26T11:23:23.096Z,4.20
2019-04-26T11:26:01.752Z,4.47
2019-04-26T11:28:34.001Z,6.70
2019-04-26T11:31:02.253Z,6.63
2019-04-26T11:33:44.260Z,4.93
2019-04-26T11:36:06.884Z,6.73
2019-04-26T11:38:45.768Z,9.00
2019-04-26T11:41:13.262Z,8.37
2019-04-26T11:43:40.856Z,8.10
2019-04-26T11:46:07.764Z,9.53
2019-04-26T11:48:36.288Z,9.63
2019-04-26T11:51:03.525Z,11.37
2019-04-26T11:53:33.389Z,10.90
2019-04-26T11:56:04.478Z,9.80
2019-04-26T11:58:31.663Z,10.03
2019-04-26T12:01:03.746Z,9.97
2019-04-26T12:03:31.327Z,10.40
2019-04-26T12:06:27.883Z,10.57
2019-04-26T12:09:15.320Z,9.90
2019-04-26T12:11:50.994Z,9.23
2019-04-26T12:14:20.481Z,10.53
2019-04-26T12:16:49.315Z,9.90
2019-04-26T12:19:18.236Z,7.97
2019-04-26T12:21:47.232Z,7.73
2019-04-26T12:24:16.689Z,8.87
2019-04-26T12:26:46.311Z,8.37
2019-04-26T12:29:14.695Z,7.77
2019-04-26T12:31:42.653Z,8.77
2019-04-26T12:34:09.653Z,8.90
2019-04-26T12:36:36.735Z,8.43
2019-04-26T12:39:07.284Z,7.83
2019-04-26T12:41:40.260Z,8.87
2019-04-26T12:44:03.291Z,9.90
2019-04-26T12:46:36.717Z,7.83
2019-04-26T12:49:03.539Z,8.80
2019-04-26T12:51:30.367Z,8.90
2019-04-26T12:53:57.565Z,8.53
2019-04-26T12:56:30.803Z,8.20
2019-04-26T12:58:55.147Z,8.70
2019-04-26T13:01:30.738Z,12.03
2019-04-26T13:04:04.153Z,15.53
2019-04-26T13:06:33.454Z,10.63
2019-04-26T13:09:00.097Z,9.27
2019-04-26T13:11:52.862Z,9.40
2019-04-26T13:14:25.620Z,9.10
2019-04-26T13:17:01.188Z,10.67
2019-04-26T13:19:34.319Z,10.17
2019-04-26T13:22:01.413Z,9.97
2019-04-26T13:24:28.450Z,9.17
2019-04-26T13:26:55.011Z,10.10
2019-04-26T13:29:21.760Z,9.57
2019-04-26T13:31:48.380Z,10.37
2019-04-26T13:34:16.376Z,10.80
2019-04-26T13:36:44.929Z,10.13
2019-04-26T13:39:13.450Z,10.30
2019-04-26T13:42:03.064Z,10.63
2019-04-26T13:44:43.841Z,10.43
2019-04-26T13:47:42.173Z,10.40
2019-04-26T13:50:15.141Z,10.80
2019-04-26T13:52:42.284Z,10.53
2019-04-26T13:55:09.066Z,9.77
2019-04-26T13:57:36.168Z,9.73
2019-04-26T14:00:06.969Z,11.27
2019-04-26T14:02:32.749Z,8.90
2019-04-26T14:04:59.631Z,9.27
2019-04-26T14:07:26.158Z,9.60
2019-04-26T14:09:52.740Z,10.87
2019-04-26T14:12:19.649Z,10.43
2019-04-26T14:14:46.541Z,10.03
2019-04-26T14:17:13.399Z,9.70
2019-04-26T14:19:40.155Z,10.47
2019-04-26T14:22:07.377Z,9.70
2019-04-26T14:24:56.909Z,10.03
2019-04-26T14:27:28.261Z,11.30
2019-04-26T14:29:55.056Z,18.07
2019-04-26T14:32:23.018Z,9.87
2019-04-26T14:34:50.308Z,9.00
2019-04-26T14:37:18.403Z,10.00
2019-04-26T14:39:50.466Z,9.90
2019-04-26T14:42:14.758Z,12.47
2019-04-26T14:44:49.205Z,9.10
2019-04-26T14:47:14.930Z,10.33
2019-04-26T14:49:42.940Z,10.30
2019-04-26T14:52:09.353Z,10.07
2019-04-26T14:54:37.366Z,11.07
2019-04-26T14:57:09.352Z,9.73
2019-04-26T14:59:56.716Z,9.77
2019-04-26T15:02:47.235Z,9.53
2019-04-26T15:05:17.686Z,9.10
2019-04-26T15:07:51.120Z,8.27
2019-04-26T15:10:15.700Z,8.93
2019-04-26T15:12:48.237Z,7.43
2019-04-26T15:15:15.499Z,6.37
2019-04-26T15:17:42.366Z,7.67
2019-04-26T15:20:09.368Z,7.63
2019-04-26T15:22:36.166Z,9.63
2019-04-26T15:25:07.789Z,7.27
2019-04-26T15:27:36.297Z,8.23
2019-04-26T15:30:04.282Z,7.03
2019-04-26T15:32:32.867Z,7.60
2019-04-26T15:35:00.048Z,7.03
2019-04-26T15:37:28.403Z,7.93
2019-04-26T15:40:09.513Z,6.63
2019-04-26T15:42:45.226Z,5.70
2019-04-26T15:45:21.949Z,5.40
2019-04-26T15:48:12.131Z,5.93
2019-04-26T15:50:47.804Z,4.83
2019-04-26T15:53:12.887Z,5.10
2019-04-26T15:55:40.301Z,4.33
2019-04-26T15:58:08.539Z,4.13
2019-04-26T16:00:36.287Z,4.20
2019-04-26T16:03:07.409Z,4.13
2019-04-26T16:05:33.412Z,5.07
2019-04-26T16:08:01.863Z,3.83
2019-04-26T16:10:37.082Z,4.87
2019-04-26T16:13:00.081Z,4.00
2019-04-26T16:15:32.232Z,5.40
2019-04-26T16:18:03.958Z,5.93
2019-04-26T16:20:33.129Z,6.77
2019-04-26T16:23:00.429Z,4.60
2019-04-26T16:25:39.701Z,5.10
2019-04-26T16:28:24.790Z,7.57
2019-04-26T16:31:13.877Z,4.80
2019-04-26T16:33:46.629Z,6.30
2019-04-26T16:36:13.499Z,4.60
2019-04-26T16:38:41.055Z,5.40
2019-04-26T16:41:08.038Z,5.00
2019-04-26T16:44:02.800Z,4.47
2019-04-26T16:46:29.862Z,4.70
2019-04-26T16:49:02.392Z,4.80
2019-04-26T16:51:34.070Z,4.30
2019-04-26T16:54:10.071Z,5.33
2019-04-26T16:56:29.722Z,5.73
2019-04-26T16:58:57.098Z,4.20
2019-04-26T17:01:23.944Z,4.17
2019-04-26T17:03:53.526Z,5.53
2019-04-26T17:06:23.396Z,5.83
2019-04-26T17:08:58.600Z,4.40
2019-04-26T17:11:18.746Z,4.53
2019-04-26T17:13:50.577Z,5.00
2019-04-26T17:16:14.587Z,5.07
2019-04-26T17:18:42.677Z,5.07
2019-04-26T17:21:10.347Z,6.43
2019-04-26T17:24:00.796Z,5.80
2019-04-26T17:26:36.750Z,5.57
2019-04-26T17:29:03.937Z,7.17
2019-04-26T17:31:30.651Z,6.93
2019-04-26T17:34:00.097Z,6.37
2019-04-26T17:36:26.895Z,6.77
2019-04-26T17:38:55.079Z,7.10
2019-04-26T17:41:22.261Z,7.00
2019-04-26T17:44:05.784Z,6.77
2019-04-26T17:46:21.742Z,6.77
2019-04-26T17:48:49.454Z,6.23
2019-04-26T17:51:22.706Z,6.23
2019-04-26T17:53:48.920Z,5.77
2019-04-26T17:56:18.632Z,5.63
2019-04-26T17:58:52.401Z,7.27
2019-04-26T18:01:39.086Z,4.90
2019-04-26T18:03:50.747Z,8.73
2019-04-26T18:06:14.022Z,6.77
2019-04-26T18:08:51.741Z,4.60
2019-04-26T18:11:18.982Z,3.53
2019-04-26T18:13:38.828Z,3.00
2019-04-26T18:16:05.703Z,3.63
2019-04-26T18:19:08.067Z,4.60
2019-04-26T18:21:56.012Z,4.77
2019-04-26T18:24:20.255Z,4.30
2019-04-26T18:26:52.299Z,3.43
2019-04-26T18:29:17.706Z,3.27
2019-04-26T18:31:44.547Z,2.90
2019-04-26T18:34:12.817Z,3.03
2019-04-26T18:36:39.577Z,5.03
2019-04-26T18:39:07.158Z,4.53
2019-04-26T18:41:34.069Z,3.90
2019-04-26T18:44:14.004Z,3.43
2019-04-26T18:46:59.182Z,2.87
2019-04-26T18:49:27.136Z,4.70
2019-04-26T18:51:54.683Z,3.23
2019-04-26T18:54:37.030Z,2.23
2019-04-26T18:57:04.237Z,2.30
2019-04-26T18:59:34.304Z,3.97
2019-04-26T19:02:00.891Z,3.27
2019-04-26T19:04:30.674Z,3.70
2019-04-26T19:06:57.995Z,3.00
2019-04-26T19:09:31.078Z,3.40
2019-04-26T19:12:04.456Z,3.20
2019-04-26T19:14:49.767Z,3.60
2019-04-26T19:17:33.789Z,6.13
2019-04-26T19:20:26.517Z,3.13
2019-04-26T19:23:02.985Z,4.83
2019-04-26T19:25:38.676Z,4.33
2019-04-26T19:28:08.296Z,4.40
2019-04-26T19:30:35.616Z,3.87
2019-04-26T19:33:02.320Z,3.43
2019-04-26T19:35:29.041Z,3.77
2019-04-26T19:38:16.547Z,3.53
2019-04-26T19:40:47.604Z,3.17
2019-04-26T19:43:12.914Z,3.30
2019-04-26T19:45:49.879Z,4.10
2019-04-26T19:48:22.968Z,4.10
2019-04-26T19:50:54.704Z,4.50
2019-04-26T19:53:42.213Z,4.40
2019-04-26T19:56:12.731Z,4.40
2019-04-26T19:58:39.649Z,6.70
2019-04-26T20:01:06.522Z,5.50
2019-04-26T20:03:33.925Z,7.10
2019-04-26T20:06:01.115Z,6.93
2019-04-26T20:08:29.414Z,7.37
2019-04-26T20:10:56.280Z,5.03
2019-04-26T20:13:23.573Z,7.10
2019-04-26T20:15:51.569Z,5.97
2019-04-26T20:18:21.376Z,6.23
2019-04-26T20:20:48.058Z,5.80
2019-04-26T20:23:14.948Z,7.17
2019-04-26T20:25:41.771Z,8.53
2019-04-26T20:28:14.020Z,8.37
2019-04-26T20:30:52.450Z,6.40
2019-04-26T20:33:19.155Z,7.07
2019-04-26T20:35:46.004Z,6.90
2019-04-26T20:38:14.611Z,6.57
2019-04-26T20:40:43.543Z,6.80
2019-04-26T20:43:22.934Z,7.03
2019-04-26T20:45:41.853Z,8.50
2019-04-26T20:48:08.127Z,8.50
2019-04-26T20:50:36.751Z,8.30
2019-04-26T20:53:03.810Z,10.27
2019-04-26T20:55:34.312Z,7.67
2019-04-26T20:57:59.946Z,12.90
2019-04-26T21:00:27.114Z,11.03
2019-04-26T21:03:01.595Z,9.03
2019-04-26T21:05:22.795Z,10.17
2019-04-26T21:07:51.092Z,11.50
2019-04-26T21:10:22.058Z,10.43
2019-04-26T21:12:52.301Z,9.00
2019-04-26T21:15:20.210Z,9.33
2019-04-26T21:17:56.626Z,7.87
2019-04-26T21:20:27.680Z,11.00
2019-04-26T21:22:53.268Z,8.07
2019-04-26T21:25:41.973Z,6.20
2019-04-26T21:28:22.096Z,6.77
2019-04-26T21:31:03.473Z,6.60
2019-04-26T21:33:38.997Z,6.43
2019-04-26T21:36:13.961Z,6.97
2019-04-26T21:38:51.007Z,4.97
2019-04-26T21:41:20.403Z,5.30
2019-04-26T21:43:57.187Z,5.33
2019-04-26T21:46:23.757Z,5.77
2019-04-26T21:48:50.336Z,5.27
2019-04-26T21:51:17.104Z,4.33
2019-04-26T21:53:52.950Z,4.27
2019-04-26T21:56:20.830Z,4.37
2019-04-26T21:58:47.367Z,4.00
2019-04-26T22:01:19.313Z,4.30
2019-04-26T22:03:53.698Z,5.33
2019-04-26T22:06:14.511Z,3.67
2019-04-26T22:08:49.525Z,4.57
2019-04-26T22:11:20.048Z,4.53
2019-04-26T22:13:53.888Z,5.50
2019-04-26T22:16:34.155Z,6.87
2019-04-26T22:19:27.906Z,4.57
2019-04-26T22:22:04.237Z,4.97
2019-04-26T22:24:33.791Z,5.37
2019-04-26T22:27:00.757Z,4.50
2019-04-26T22:29:27.354Z,7.43
2019-04-26T22:31:54.850Z,5.50
2019-04-26T22:34:21.410Z,6.60
2019-04-26T22:36:49.467Z,5.70
2019-04-26T22:39:16.966Z,7.17
2019-04-26T22:41:43.767Z,5.70
2019-04-26T22:44:16.754Z,6.30
2019-04-26T22:47:03.564Z,5.67
2019-04-26T22:49:29.904Z,5.73
2019-04-26T22:51:56.478Z,5.60
2019-04-26T22:54:24.915Z,5.63
2019-04-26T22:56:53.939Z,6.97
2019-04-26T22:59:20.523Z,7.33
2019-04-26T23:01:48.737Z,6.83
2019-04-26T23:04:22.696Z,7.13
2019-04-26T23:06:46.977Z,6.30
2019-04-26T23:09:16.796Z,7.00
2019-04-26T23:11:43.900Z,7.20
2019-04-26T23:14:19.242Z,6.63
2019-04-26T23:17:11.551Z,7.13
2019-04-26T23:19:44.676Z,6.50
2019-04-26T23:22:12.854Z,6.63
2019-04-26T23:24:39.484Z,6.00
2019-04-26T23:27:16.530Z,7.33
2019-04-26T23:29:45.910Z,7.13
2019-04-26T23:32:18.576Z,7.83
2019-04-26T23:34:41.268Z,7.30
2019-04-26T23:37:08.038Z,7.83
2019-04-26T23:39:34.620Z,6.87
2019-04-26T23:42:01.130Z,8.40
2019-04-26T23:44:27.768Z,7.17
2019-04-26T23:47:00.848Z,8.27
2019-04-26T23:49:25.301Z,6.93
2019-04-26T23:51:53.340Z,7.43
2019-04-26T23:54:20.082Z,8.43
2019-04-26T23:56:47.185Z,7.83
2019-04-26T23:59:24.780Z,8.00
